Time;durP1;ratioP1;P1;durP2;ratioP2;P2;SDS_P1;SDS_P2;PMS_P1;PMS_P2;Temp;Humidity;BMP_temperature;BMP_pressure;BME280_temperature;BME280_humidity;BME280_pressure;Samples;Min_cycle;Max_cycle;Signal;HPM_P1;HPM_P2
2021/06/11 00:00:06;;;;;;;6.63;5.50;;;;;;;15.96;73.26;93760.94;6201775;23;20020;-80
2021/06/11 00:02:32;;;;;;;7.75;6.03;;;;;;;15.94;73.30;93757.00;6202368;23;20028;-81
2021/06/11 00:04:57;;;;;;;7.68;5.50;;;;;;;15.93;72.99;93761.56;6172036;23;20078;-81
2021/06/11 00:07:23;;;;;;;8.23;5.97;;;;;;;15.96;73.16;93752.16;6207864;23;20020;-82
2021/06/11 00:09:48;;;;;;;8.27;6.00;;;;;;;15.99;73.34;93752.28;6175318;23;20051;-82
2021/06/11 00:12:14;;;;;;;6.80;5.30;;;;;;;15.95;73.09;93750.59;6173168;23;20275;-81
2021/06/11 00:14:41;;;;;;;8.15;6.03;;;;;;;15.85;73.37;93757.06;6196739;23;20418;-82
2021/06/11 00:17:07;;;;;;;5.97;5.25;;;;;;;15.80;73.71;93759.91;6173033;23;20079;-81
2021/06/11 00:19:32;;;;;;;7.15;5.85;;;;;;;15.83;73.72;93751.28;6194238;23;20177;-81
2021/06/11 00:21:59;;;;;;;6.53;5.55;;;;;;;15.78;73.74;93743.50;6196953;23;20062;-80
2021/06/11 00:24:26;;;;;;;5.95;5.35;;;;;;;15.80;74.07;93754.59;6197387;23;20082;-81
2021/06/11 00:26:51;;;;;;;6.22;5.63;;;;;;;15.76;74.11;93745.69;6167517;23;20124;-81
2021/06/11 00:29:16;;;;;;;9.18;6.07;;;;;;;15.80;74.59;93749.25;6195380;23;20280;-81
2021/06/11 00:31:42;;;;;;;6.05;5.47;;;;;;;15.90;73.37;93746.22;6168777;23;20332;-81
2021/06/11 00:34:07;;;;;;;6.93;5.50;;;;;;;15.92;72.65;93740.59;6192473;23;20190;-81
2021/06/11 00:36:33;;;;;;;6.55;5.90;;;;;;;15.70;73.42;93728.31;6199119;23;20419;-82
2021/06/11 00:38:58;;;;;;;6.78;6.07;;;;;;;15.65;73.81;93731.16;6168245;23;20020;-81
2021/06/11 00:41:23;;;;;;;7.15;5.70;;;;;;;15.60;74.05;93728.66;6199886;23;20126;-81
2021/06/11 00:43:49;;;;;;;6.15;5.57;;;;;;;15.53;74.64;93731.06;6171023;23;20009;-81
2021/06/11 00:46:14;;;;;;;7.93;5.63;;;;;;;15.42;75.27;93732.50;6208650;23;20015;-81
2021/06/11 00:48:39;;;;;;;8.10;6.93;;;;;;;15.53;75.01;93718.53;6213200;23;20001;-81
2021/06/11 00:51:05;;;;;;;6.38;5.85;;;;;;;15.62;74.72;93731.03;6196944;23;20300;-81
2021/06/11 00:53:30;;;;;;;7.55;6.28;;;;;;;15.59;75.19;93737.75;6203918;23;20320;-81
2021/06/11 00:55:56;;;;;;;10.25;6.82;;;;;;;15.40;76.12;93738.13;6198839;23;20012;-81
2021/06/11 00:58:21;;;;;;;10.35;7.30;;;;;;;15.38;76.15;93735.03;6200118;23;20013;-81
2021/06/11 01:00:48;;;;;;;8.18;6.88;;;;;;;15.35;76.27;93732.19;6202244;23;20299;-80
2021/06/11 01:03:18;;;;;;;9.90;6.95;;;;;;;15.35;75.93;93727.66;6199601;23;20028;-81
2021/06/11 01:05:43;;;;;;;7.35;6.65;;;;;;;15.41;76.04;93728.25;6198995;23;20020;-81
2021/06/11 01:08:12;;;;;;;7.63;6.40;;;;;;;15.15;76.08;93721.16;6200996;23;20510;-80
2021/06/11 01:10:38;;;;;;;6.90;6.28;;;;;;;15.24;75.53;93721.13;6198109;23;20132;-80
2021/06/11 01:13:04;;;;;;;7.78;6.65;;;;;;;15.05;76.33;93729.47;6170226;23;20000;-80
2021/06/11 01:15:30;;;;;;;7.88;7.05;;;;;;;14.97;76.54;93714.31;6212557;23;20004;-80
2021/06/11 01:17:55;;;;;;;8.52;7.10;;;;;;;15.05;76.48;93734.78;6198693;23;20074;-80
2021/06/11 01:20:22;;;;;;;7.80;6.22;;;;;;;15.14;76.17;93730.25;6203701;23;20284;-80
2021/06/11 01:23:12;;;;;;;7.40;6.70;;;;;;;15.01;77.19;93733.09;6197472;23;20101;-81
2021/06/11 01:26:01;;;;;;;7.82;6.97;;;;;;;15.06;77.13;93749.66;6173469;23;20020;-80
2021/06/11 01:28:27;;;;;;;10.20;8.35;;;;;;;14.97;77.87;93746.25;6164142;23;20048;-80
2021/06/11 01:30:55;;;;;;;9.85;7.57;;;;;;;14.94;78.27;93741.56;6202563;23;20012;-80
2021/06/11 01:33:23;;;;;;;7.53;6.82;;;;;;;14.99;78.71;93745.94;6197692;23;20043;-80
2021/06/11 01:35:54;;;;;;;8.43;7.55;;;;;;;14.94;78.94;93748.78;6200206;23;20074;-81
2021/06/11 01:38:23;;;;;;;9.52;7.43;;;;;;;14.92;78.91;93749.06;6201219;23;20017;-81
2021/06/11 01:40:52;;;;;;;8.90;8.10;;;;;;;14.97;78.64;93748.13;6204316;23;20051;-80
2021/06/11 01:43:19;;;;;;;9.20;7.63;;;;;;;14.97;78.66;93740.94;6169774;23;21260;-81
2021/06/11 01:45:45;;;;;;;8.77;7.53;;;;;;;14.88;78.87;93745.50;6211803;23;20011;-81
2021/06/11 01:48:11;;;;;;;10.13;7.53;;;;;;;14.88;78.79;93740.16;6198593;23;20024;-81
2021/06/11 01:50:37;;;;;;;12.13;7.72;;;;;;;14.88;78.71;93732.19;6201459;23;20035;-81
2021/06/11 01:53:05;;;;;;;8.85;7.40;;;;;;;14.74;78.97;93728.94;6197811;23;20012;-81
2021/06/11 01:55:33;;;;;;;9.07;8.10;;;;;;;14.82;79.19;93736.09;6196346;23;20019;-82
2021/06/11 01:58:00;;;;;;;8.77;7.22;;;;;;;14.81;79.02;93731.88;6200813;23;20446;-81
2021/06/11 02:00:26;;;;;;;9.57;7.78;;;;;;;14.81;79.50;93745.16;6199967;23;19993;-81
2021/06/11 02:02:52;;;;;;;8.45;7.47;;;;;;;14.75;79.82;93730.50;6199847;23;20026;-81
2021/06/11 02:05:21;;;;;;;9.07;8.18;;;;;;;14.77;80.21;93724.84;6168065;23;20016;-81
2021/06/11 02:07:48;;;;;;;14.73;8.07;;;;;;;14.75;80.37;93727.84;6206278;23;20352;-81
2021/06/11 02:10:19;;;;;;;11.70;8.15;;;;;;;14.80;80.70;93727.66;6198528;23;20311;-81
2021/06/11 02:12:46;;;;;;;9.07;8.15;;;;;;;14.73;80.68;93716.72;6211841;23;20501;-81
2021/06/11 02:15:13;;;;;;;11.85;9.02;;;;;;;14.78;80.56;93711.22;6198052;23;20028;-81
2021/06/11 02:17:44;;;;;;;9.70;8.70;;;;;;;14.89;79.92;93704.50;6199289;23;20349;-81
2021/06/11 02:20:12;;;;;;;10.93;8.05;;;;;;;14.90;79.69;93711.38;6167572;23;20072;-80
2021/06/11 02:22:43;;;;;;;8.77;7.97;;;;;;;14.86;79.88;93720.28;6197235;23;20024;-81
2021/06/11 02:25:10;;;;;;;8.65;7.75;;;;;;;14.81;79.84;93713.25;6203838;23;20451;-80
2021/06/11 02:27:37;;;;;;;10.70;8.80;;;;;;;14.67;79.96;93718.75;6207201;23;20005;-81
2021/06/11 02:30:13;;;;;;;9.10;8.27;;;;;;;14.79;79.85;93725.31;6198303;23;20027;-81
2021/06/11 02:32:39;;;;;;;11.85;7.82;;;;;;;14.55;80.70;93718.63;6170648;23;20021;-81
2021/06/11 02:35:12;;;;;;;9.55;8.60;;;;;;;14.46;81.10;93723.19;6204072;23;20455;-81
2021/06/11 02:37:38;;;;;;;12.55;9.32;;;;;;;14.52;81.27;93723.78;6204617;23;20024;-82
2021/06/11 02:40:05;;;;;;;11.95;8.80;;;;;;;14.52;81.42;93727.22;6208981;23;20000;-81
2021/06/11 02:42:32;;;;;;;9.98;8.90;;;;;;;14.61;81.33;93735.22;6202148;23;20011;-81
2021/06/11 02:45:05;;;;;;;10.00;8.98;;;;;;;14.54;81.32;93719.72;6198155;23;20340;-81
2021/06/11 02:47:47;;;;;;;11.45;8.95;;;;;;;14.52;81.74;93734.41;6202684;23;20038;-81
2021/06/11 02:50:16;;;;;;;10.10;9.07;;;;;;;14.37;82.21;93740.22;6172853;23;20020;-81
2021/06/11 02:52:49;;;;;;;10.07;8.93;;;;;;;14.41;82.28;93725.22;6199717;23;20052;-81
2021/06/11 02:55:16;;;;;;;11.55;8.77;;;;;;;14.47;81.76;93739.88;6197273;23;20066;-81
2021/06/11 02:58:09;;;;;;;12.25;9.25;;;;;;;14.35;82.72;93739.72;6211806;23;20098;-81
2021/06/11 03:00:36;;;;;;;10.88;9.43;;;;;;;14.35;83.07;93737.84;6200443;23;20044;-81
2021/06/11 03:03:04;;;;;;;13.20;9.65;;;;;;;14.19;83.29;93734.84;6200744;23;20644;-81
2021/06/11 03:05:31;;;;;;;11.07;9.98;;;;;;;14.41;83.07;93736.63;6201338;23;20086;-81
2021/06/11 03:07:59;;;;;;;12.32;9.93;;;;;;;14.33;83.19;93740.81;6203751;23;20016;-81
2021/06/11 03:10:29;;;;;;;10.43;9.32;;;;;;;14.41;83.19;93741.94;6199867;23;20044;-81
2021/06/11 03:12:56;;;;;;;11.90;9.73;;;;;;;14.43;83.29;93745.06;6202428;23;20031;-81
2021/06/11 03:15:24;;;;;;;11.18;9.70;;;;;;;14.61;83.11;93751.16;6198600;23;20416;-81
2021/06/11 03:17:55;;;;;;;11.10;9.93;;;;;;;14.94;82.42;93744.22;6199824;23;20013;-81
2021/06/11 03:20:29;;;;;;;9.38;8.48;;;;;;;15.30;81.14;93743.00;6199599;23;20201;-79
2021/06/11 03:23:07;;;;;;;9.68;8.65;;;;;;;15.83;79.71;93743.28;6205962;23;20070;-81
2021/06/11 03:26:02;;;;;;;8.90;8.00;;;;;;;16.48;77.48;93731.25;6206844;23;20538;-81
2021/06/11 03:28:42;;;;;;;9.48;7.47;;;;;;;17.08;74.85;93733.38;6199608;23;20055;-80
2021/06/11 03:31:13;;;;;;;10.95;7.05;;;;;;;17.69;72.15;93734.28;6207198;23;20015;-81
2021/06/11 03:33:40;;;;;;;8.10;7.18;;;;;;;18.22;69.39;93732.47;6212666;23;20349;-81
2021/06/11 03:36:31;;;;;;;6.78;6.18;;;;;;;18.94;66.31;93739.50;6197428;23;20028;-81
2021/06/11 03:39:00;;;;;;;9.50;7.35;;;;;;;19.39;63.14;93741.84;6183987;23;20455;-81
2021/06/11 03:41:27;;;;;;;12.52;6.80;;;;;;;19.73;61.32;93739.63;6200543;23;20127;-81
2021/06/11 03:43:53;;;;;;;13.32;8.07;;;;;;;20.05;59.27;93730.41;6198787;23;20013;-81
2021/06/11 03:46:20;;;;;;;8.65;6.90;;;;;;;20.24;58.13;93724.31;6208832;23;20016;-81
2021/06/11 03:48:49;;;;;;;12.40;6.60;;;;;;;20.55;57.73;93744.97;6213000;23;20000;-80
2021/06/11 03:51:16;;;;;;;10.45;7.25;;;;;;;20.87;56.83;93732.94;6197119;23;20085;-82
2021/06/11 03:53:42;;;;;;;9.75;6.75;;;;;;;21.26;55.11;93727.59;6203492;23;20035;-81
2021/06/11 03:56:10;;;;;;;9.52;7.25;;;;;;;21.59;54.53;93738.53;6197304;23;20020;-81
2021/06/11 03:58:43;;;;;;;10.48;7.53;;;;;;;21.51;53.81;93734.16;6200624;23;20012;-81
2021/06/11 04:01:16;;;;;;;12.45;7.78;;;;;;;21.75;52.67;93711.50;6201651;23;20004;-81
2021/06/11 04:03:42;;;;;;;9.68;6.82;;;;;;;21.99;51.64;93738.06;6212963;23;20412;-81
2021/06/11 04:06:15;;;;;;;11.73;7.93;;;;;;;21.60;52.52;93745.44;6197507;23;20095;-81
2021/06/11 04:08:41;;;;;;;10.60;8.20;;;;;;;21.70;52.93;93744.84;6172414;23;20016;-82
2021/06/11 04:11:15;;;;;;;10.85;8.45;;;;;;;22.11;52.33;93739.75;6199851;23;20330;-80
2021/06/11 04:13:51;;;;;;;12.25;8.40;;;;;;;22.39;51.67;93750.94;6204665;23;20016;-82
2021/06/11 04:16:23;;;;;;;12.75;8.77;;;;;;;22.78;50.07;93741.50;6172821;23;20004;-82
2021/06/11 04:18:51;;;;;;;13.13;9.13;;;;;;;23.03;49.67;93743.72;6201843;23;20005;-82
2021/06/11 04:21:22;;;;;;;13.00;8.43;;;;;;;23.57;49.31;93738.53;6172665;23;20027;-81
2021/06/11 04:23:49;;;;;;;19.33;9.80;;;;;;;23.80;48.05;93745.69;6168212;23;20026;-81
2021/06/11 04:26:19;;;;;;;13.27;9.20;;;;;;;24.13;47.76;93746.34;6195144;23;20016;-81
2021/06/11 04:28:45;;;;;;;16.20;9.00;;;;;;;24.37;46.55;93739.59;6167556;23;20013;-81
2021/06/11 04:31:11;;;;;;;12.63;9.25;;;;;;;24.57;46.53;93743.56;6206839;23;20489;-82
2021/06/11 04:33:36;;;;;;;17.27;9.05;;;;;;;24.55;46.20;93740.47;6211014;23;20004;-82
2021/06/11 04:36:02;;;;;;;16.23;9.20;;;;;;;24.91;45.92;93746.09;6200600;23;20531;-82
2021/06/11 04:38:28;;;;;;;14.45;8.88;;;;;;;24.89;45.39;93735.66;6199444;23;20355;-82
2021/06/11 04:40:53;;;;;;;11.27;9.27;;;;;;;24.96;45.62;93748.44;6202352;23;20022;-80
2021/06/11 04:43:24;;;;;;;14.90;9.30;;;;;;;24.99;45.35;93744.94;6199960;23;20020;-80
2021/06/11 04:45:52;;;;;;;16.65;9.07;;;;;;;24.96;45.55;93745.72;6212497;23;20000;-82
2021/06/11 04:48:18;;;;;;;12.23;10.05;;;;;;;25.03;45.51;93740.31;6201544;23;20341;-82
2021/06/11 04:50:43;;;;;;;14.27;10.68;;;;;;;25.06;45.83;93750.41;6200367;23;20029;-82
2021/06/11 04:53:09;;;;;;;16.45;10.20;;;;;;;25.21;45.44;93743.88;6201046;23;20021;-82
2021/06/11 04:55:35;;;;;;;17.23;12.35;;;;;;;25.48;45.04;93732.72;6207791;23;20047;-82
2021/06/11 04:58:00;;;;;;;18.05;10.18;;;;;;;26.25;44.67;93732.06;6209542;23;20055;-82
2021/06/11 05:00:26;;;;;;;15.15;8.82;;;;;;;26.83;42.55;93742.38;6212892;23;20028;-82
2021/06/11 05:02:52;;;;;;;15.38;9.95;;;;;;;27.43;41.51;93749.53;6200322;23;20024;-83
2021/06/11 05:05:17;;;;;;;12.05;8.05;;;;;;;28.18;40.56;93737.06;6202784;23;20482;-82
2021/06/11 05:07:45;;;;;;;8.75;7.40;;;;;;;28.60;39.48;93738.59;6199074;23;20381;-83
2021/06/11 05:10:11;;;;;;;9.95;6.65;;;;;;;29.06;37.83;93729.22;6207770;23;20005;-82
2021/06/11 05:12:36;;;;;;;6.55;5.97;;;;;;;29.79;36.94;93734.09;6202559;23;19997;-82
2021/06/11 05:15:04;;;;;;;11.48;6.85;;;;;;;30.13;36.53;93741.00;6200847;23;20020;-81
2021/06/11 05:17:33;;;;;;;9.27;6.68;;;;;;;30.72;35.84;93745.09;6197855;23;20119;-83
2021/06/11 05:19:58;;;;;;;15.07;7.38;;;;;;;30.46;35.71;93738.53;6199114;23;20019;-85
2021/06/11 05:22:24;;;;;;;13.63;6.93;;;;;;;31.24;35.39;93746.03;6206277;23;20103;-82
2021/06/11 05:24:49;;;;;;;9.13;6.43;;;;;;;31.52;34.17;93744.69;6212706;23;20030;-83
2021/06/11 05:27:15;;;;;;;9.40;6.15;;;;;;;31.68;33.70;93744.00;6196753;23;20013;-84
2021/06/11 05:29:41;;;;;;;12.65;6.25;;;;;;;31.88;33.53;93747.44;6172321;23;20024;-83
2021/06/11 05:32:07;;;;;;;10.63;5.40;;;;;;;32.45;31.85;93735.19;6203150;23;20013;-81
2021/06/11 05:34:33;;;;;;;7.35;5.25;;;;;;;32.51;31.74;93745.16;6171158;23;20015;-85
2021/06/11 05:36:58;;;;;;;7.65;4.72;;;;;;;32.45;31.73;93746.13;6168491;23;20008;-83
2021/06/11 05:39:23;;;;;;;13.00;5.47;;;;;;;31.91;32.80;93754.81;6193575;23;20454;-83
2021/06/11 05:41:49;;;;;;;7.18;4.80;;;;;;;31.12;33.78;93756.84;6192111;23;20067;-82
2021/06/11 05:44:14;;;;;;;8.93;4.93;;;;;;;30.13;35.13;93748.41;6197924;23;20609;-82
2021/06/11 05:46:42;;;;;;;9.68;6.03;;;;;;;29.23;36.75;93760.88;6202390;23;20008;-89
2021/06/11 05:49:08;;;;;;;8.00;5.53;;;;;;;28.77;37.55;93754.00;6180580;23;20483;-84
2021/06/11 05:51:33;;;;;;;11.68;6.32;;;;;;;28.45;38.59;93764.38;6186812;23;20036;-91
2021/06/11 05:53:59;;;;;;;11.07;6.20;;;;;;;29.33;38.02;93765.44;6196958;23;20423;-88
2021/06/11 05:56:24;;;;;;;6.65;5.57;;;;;;;30.04;35.51;93762.53;6197106;23;20634;-86
2021/06/11 05:58:50;;;;;;;9.05;5.03;;;;;;;31.03;34.62;93756.63;6196980;23;20691;-88
2021/06/11 06:01:15;;;;;;;6.55;4.15;;;;;;;31.79;32.86;93763.66;6208033;23;20084;-86
2021/06/11 06:03:40;;;;;;;7.70;4.57;;;;;;;32.28;32.04;93763.72;6200125;23;20362;-83
2021/06/11 06:06:09;;;;;;;13.48;5.25;;;;;;;32.89;31.79;93772.75;6154710;23;20108;-83
2021/06/11 06:08:37;;;;;;;7.38;3.13;;;;;;;34.01;29.21;93781.00;6195467;23;20017;-83
2021/06/11 06:11:03;;;;;;;4.45;3.40;;;;;;;34.16;28.25;93767.63;6192548;23;20078;-85
2021/06/11 06:13:28;;;;;;;4.53;3.95;;;;;;;34.32;28.21;93773.75;6198344;23;20111;-86
2021/06/11 06:15:54;;;;;;;8.82;3.72;;;;;;;34.02;27.87;93770.78;6198338;23;20012;-86
2021/06/11 06:18:20;;;;;;;5.22;3.30;;;;;;;34.45;27.84;93779.25;6198579;23;20063;-86
2021/06/11 06:20:46;;;;;;;4.20;3.00;;;;;;;34.68;27.46;93767.94;6198812;23;20043;-87
2021/06/11 06:23:12;;;;;;;3.85;3.35;;;;;;;35.22;27.43;93777.88;6199200;23;20578;-88
2021/06/11 06:25:38;;;;;;;5.15;2.63;;;;;;;35.02;27.02;93769.13;6199267;23;20086;-89
2021/06/11 06:28:04;;;;;;;2.72;2.53;;;;;;;35.27;26.51;93773.78;6209378;23;20004;-88
2021/06/11 06:30:29;;;;;;;3.40;3.13;;;;;;;35.63;26.30;93765.75;6212482;23;20000;-87
2021/06/11 06:32:56;;;;;;;7.63;3.80;;;;;;;35.69;26.07;93782.47;6200180;23;20356;-83
2021/06/11 06:35:21;;;;;;;3.28;2.95;;;;;;;35.07;26.60;93776.81;6204951;23;20196;-87
2021/06/11 06:37:47;;;;;;;15.48;4.30;;;;;;;35.76;25.63;93765.72;6207012;23;20019;-86
2021/06/11 06:40:12;;;;;;;4.57;3.08;;;;;;;35.93;26.46;93773.28;6208460;23;20335;-87
2021/06/11 06:42:38;;;;;;;8.50;3.17;;;;;;;36.29;25.59;93775.47;6175078;23;19919;-86
2021/06/11 06:45:06;;;;;;;7.13;3.20;;;;;;;36.41;25.19;93774.56;6172163;23;20502;-86
2021/06/11 06:47:33;;;;;;;6.53;3.05;;;;;;;36.60;25.28;93782.91;6174252;23;20019;-87
2021/06/11 06:49:59;;;;;;;5.80;3.20;;;;;;;35.66;25.85;93783.38;6173247;23;20120;-86
2021/06/11 06:52:24;;;;;;;3.92;2.88;;;;;;;35.73;26.26;93763.88;6198357;23;20095;-86
2021/06/11 06:54:50;;;;;;;2.92;2.63;;;;;;;36.39;25.46;93773.50;6201073;23;20837;-86
2021/06/11 06:57:15;;;;;;;3.28;2.83;;;;;;;36.65;25.39;93774.84;6198759;23;20017;-90
2021/06/11 06:59:41;;;;;;;4.93;2.88;;;;;;;36.76;24.86;93777.13;6173368;23;20013;-86
2021/06/11 07:02:07;;;;;;;5.47;2.85;;;;;;;36.97;24.61;93778.22;6198534;23;20432;-86
2021/06/11 07:04:35;;;;;;;5.32;3.17;;;;;;;36.74;24.32;93774.09;6198068;23;20036;-84
2021/06/11 07:07:00;;;;;;;5.07;3.00;;;;;;;37.30;25.15;93774.44;6200383;23;20174;-89
2021/06/11 07:09:28;;;;;;;4.75;2.92;;;;;;;37.61;24.07;93771.53;6211859;23;19992;-86
2021/06/11 07:11:53;;;;;;;5.88;3.08;;;;;;;36.99;24.60;93765.53;6200401;23;20394;-87
2021/06/11 07:14:23;;;;;;;6.53;2.72;;;;;;;37.05;24.41;93771.94;6203437;23;20023;-86
2021/06/11 07:16:48;;;;;;;5.80;2.85;;;;;;;37.71;24.74;93766.75;6175068;23;20245;-87
2021/06/11 07:19:16;;;;;;;5.75;3.42;;;;;;;38.04;23.37;93764.84;6209831;23;20040;-87
2021/06/11 07:21:42;;;;;;;7.50;2.97;;;;;;;38.47;22.95;93749.03;6213686;23;20014;-86
2021/06/11 07:24:08;;;;;;;3.15;2.85;;;;;;;39.07;21.78;93764.63;6202198;23;20017;-87
2021/06/11 07:26:33;;;;;;;3.97;2.70;;;;;;;39.11;22.01;93754.91;6175303;23;20013;-90
2021/06/11 07:28:59;;;;;;;4.18;2.40;;;;;;;39.31;21.32;93762.59;6201157;23;20094;-85
2021/06/11 07:31:25;;;;;;;5.03;3.00;;;;;;;39.16;22.14;93757.03;6201366;23;20012;-82
2021/06/11 07:33:50;;;;;;;5.85;3.22;;;;;;;38.95;22.59;93769.19;6214685;23;20767;-88
2021/06/11 07:36:16;;;;;;;3.17;2.88;;;;;;;38.48;22.99;93756.84;6201391;23;20107;-87
2021/06/11 07:38:41;;;;;;;4.15;3.08;;;;;;;38.47;22.59;93746.25;6199827;23;20017;-86
2021/06/11 07:41:07;;;;;;;2.92;2.65;;;;;;;38.38;23.00;93755.34;6200355;23;20451;-84
2021/06/11 07:43:32;;;;;;;3.97;3.13;;;;;;;38.75;22.73;93750.41;6201542;23;20020;-87
2021/06/11 07:45:57;;;;;;;5.68;2.95;;;;;;;39.14;23.33;93764.28;6204731;23;20005;-89
2021/06/11 07:48:25;;;;;;;3.67;2.53;;;;;;;39.91;20.62;93747.59;6201633;23;20316;-87
2021/06/11 07:50:51;;;;;;;5.40;3.00;;;;;;;39.32;21.59;93747.56;6188561;23;20028;-85
2021/06/11 07:53:16;;;;;;;4.18;3.05;;;;;;;39.50;21.91;93757.69;6206195;23;20355;-86
2021/06/11 07:55:42;;;;;;;4.18;2.63;;;;;;;39.67;21.54;93762.28;6194925;23;20019;-87
2021/06/11 07:58:08;;;;;;;3.75;2.85;;;;;;;39.59;21.45;93763.13;6199736;23;20004;-87
2021/06/11 08:00:34;;;;;;;3.97;2.78;;;;;;;39.76;21.04;93764.22;6214405;23;20032;-84
2021/06/11 08:03:00;;;;;;;2.95;2.65;;;;;;;39.50;21.34;93765.97;6198955;23;20028;-87
2021/06/11 08:05:27;;;;;;;4.00;2.72;;;;;;;40.00;21.35;93772.41;6203284;23;20550;-87
2021/06/11 08:07:53;;;;;;;4.72;2.25;;;;;;;40.04;21.20;93768.19;6196269;23;20016;-84
2021/06/11 08:10:19;;;;;;;8.13;6.20;;;;;;;39.70;21.08;93775.16;6208827;23;20017;-85
2021/06/11 08:12:44;;;;;;;3.58;3.22;;;;;;;39.47;20.98;93764.16;6201938;23;20004;-86
2021/06/11 08:15:11;;;;;;;3.55;3.25;;;;;;;39.79;21.14;93768.78;6172686;23;20016;-83
2021/06/11 08:17:36;;;;;;;6.32;3.13;;;;;;;39.78;21.07;93756.94;6173772;23;20023;-84
2021/06/11 08:20:04;;;;;;;2.60;2.40;;;;;;;39.67;20.71;93765.03;6197952;23;20024;-83
2021/06/11 08:22:29;;;;;;;6.60;6.00;;;;;;;39.98;20.91;93763.84;6199748;23;20013;-83
2021/06/11 08:24:55;;;;;;;3.53;3.13;;;;;;;39.93;20.70;93768.00;6200607;23;20418;-86
2021/06/11 08:27:20;;;;;;;69.45;62.25;;;;;;;40.12;19.99;93754.75;6195274;23;20355;-85
2021/06/11 08:29:45;;;;;;;93.65;85.15;;;;;;;39.81;20.96;93756.00;6161945;23;20322;-86
2021/06/11 08:32:11;;;;;;;4.65;4.25;;;;;;;39.21;21.45;93772.19;6200493;23;20036;-84
2021/06/11 08:34:36;;;;;;;23.17;20.83;;;;;;;39.08;21.10;93768.91;6199679;23;20034;-82
2021/06/11 08:37:06;;;;;;;55.67;47.08;;;;;;;38.19;21.85;93759.41;6209080;23;20008;-83
2021/06/11 08:39:32;;;;;;;727.95;594.17;;;;;;;38.60;22.25;93755.09;6202538;23;20505;-84
2021/06/11 08:41:57;;;;;;;72.10;64.90;;;;;;;38.48;22.03;93747.78;6198858;23;20123;-84
2021/06/11 08:44:26;;;;;;;26.05;23.35;;;;;;;38.69;21.71;93749.53;6202125;23;20346;-83
2021/06/11 08:46:51;;;;;;;54.53;45.08;;;;;;;38.87;21.70;93746.63;6204712;23;20017;-85
2021/06/11 08:49:17;;;;;;;5.85;3.92;;;;;;;38.85;21.37;93742.81;6197688;23;20029;-82
2021/06/11 08:51:45;;;;;;;23.40;21.02;;;;;;;38.61;21.94;93745.56;6211640;23;20004;-87
2021/06/11 08:54:13;;;;;;;327.00;294.95;;;;;;;38.76;21.75;93735.34;6172368;23;20082;-88
2021/06/11 08:56:39;;;;;;;5.90;4.63;;;;;;;38.79;21.53;93733.66;6169917;23;20036;-85
2021/06/11 08:59:13;;;;;;;4.05;2.63;;;;;;;38.60;20.61;93733.00;6199047;23;20509;-90
2021/06/11 09:01:39;;;;;;;42.72;38.70;;;;;;;38.24;22.27;93719.38;6170741;23;20430;-84
2021/06/11 09:04:04;;;;;;;4.78;3.10;;;;;;;38.59;21.44;93731.47;6172554;23;20020;-85
2021/06/11 09:06:30;;;;;;;6.43;2.88;;;;;;;37.78;22.55;93727.06;6201902;23;20166;-82
2021/06/11 09:08:57;;;;;;;8.95;4.05;;;;;;;37.49;24.15;93727.53;6202746;23;20020;-82
2021/06/11 09:11:25;;;;;;;3.03;2.53;;;;;;;37.79;23.38;93728.56;6198442;23;20028;-83
2021/06/11 09:14:01;;;;;;;3.60;3.30;;;;;;;37.39;22.48;93726.06;6206533;23;20015;-84
2021/06/11 09:16:29;;;;;;;6.20;3.60;;;;;;;36.91;24.02;93728.50;6172524;23;20062;-85
2021/06/11 09:19:04;;;;;;;3.60;2.60;;;;;;;36.43;24.12;93724.59;6201154;23;20343;-84
2021/06/11 09:21:34;;;;;;;3.78;2.75;;;;;;;35.09;25.38;93727.69;6199741;23;20020;-82
2021/06/11 09:27:05;;;;;;;6.20;3.30;;;;;;;34.45;26.81;93734.59;6202237;23;20020;-90
2021/06/11 09:29:44;;;;;;;4.57;3.03;;;;;;;33.26;26.73;93724.84;6202018;23;20016;-84
2021/06/11 09:32:25;;;;;;;4.40;3.78;;;;;;;32.81;27.25;93724.88;6171823;23;20024;-85
2021/06/11 09:34:55;;;;;;;3.40;3.10;;;;;;;33.17;28.35;93718.47;6173516;23;20009;-83
2021/06/11 09:37:29;;;;;;;4.35;3.30;;;;;;;33.05;27.72;93712.50;6207592;23;20016;-82
2021/06/11 09:39:54;;;;;;;3.97;3.60;;;;;;;32.94;27.83;93719.47;6175051;23;20001;-85
2021/06/11 09:42:26;;;;;;;3.90;3.45;;;;;;;32.72;28.26;93711.06;6199362;23;20367;-85
2021/06/11 09:44:57;;;;;;;7.70;4.60;;;;;;;32.43;28.98;93693.81;6200725;23;20023;-83
2021/06/11 09:47:36;;;;;;;6.40;3.08;;;;;;;32.16;28.83;93707.75;6203011;23;20021;-85
2021/06/11 09:50:04;;;;;;;5.03;3.58;;;;;;;31.89;27.17;93702.53;6203372;23;20024;-87
2021/06/11 09:52:34;;;;;;;3.72;3.15;;;;;;;31.35;29.09;93700.19;6192259;23;20012;-85
2021/06/11 09:55:03;;;;;;;4.15;3.22;;;;;;;31.72;29.76;93707.19;6209113;23;20020;-87
2021/06/11 09:57:33;;;;;;;5.22;3.42;;;;;;;31.26;28.95;93701.94;6203042;23;20004;-85
2021/06/11 09:59:58;;;;;;;5.28;2.90;;;;;;;31.06;27.95;93687.56;6155568;23;20024;-84
2021/06/11 10:02:24;;;;;;;4.25;3.20;;;;;;;31.22;28.36;93685.66;6171860;23;20292;-85
2021/06/11 10:04:50;;;;;;;12.75;3.95;;;;;;;31.00;28.68;93681.78;6199262;23;20020;-82
2021/06/11 10:07:15;;;;;;;4.13;3.25;;;;;;;31.21;28.64;93686.84;6169807;23;20386;-83
2021/06/11 10:09:41;;;;;;;6.72;3.92;;;;;;;31.21;30.24;93680.59;6212482;23;20150;-85
2021/06/11 10:12:08;;;;;;;13.43;4.20;;;;;;;31.13;29.91;93682.69;6154875;23;20119;-85
2021/06/11 10:14:36;;;;;;;3.45;3.03;;;;;;;30.94;28.87;93678.78;6197807;23;20020;-85
2021/06/11 10:17:02;;;;;;;3.25;2.95;;;;;;;30.88;29.50;93668.78;6198741;23;20016;-82
2021/06/11 10:19:28;;;;;;;6.60;3.45;;;;;;;31.24;29.36;93672.34;6197535;23;20016;-82
2021/06/11 10:21:54;;;;;;;3.78;3.10;;;;;;;31.12;29.68;93669.50;6199662;23;20005;-84
2021/06/11 10:24:21;;;;;;;4.10;3.30;;;;;;;31.40;30.30;93669.66;6196402;23;20037;-85
2021/06/11 10:26:49;;;;;;;5.05;3.90;;;;;;;30.98;29.06;93649.44;6200381;23;20491;-86
2021/06/11 10:29:17;;;;;;;5.68;3.22;;;;;;;30.58;29.84;93663.53;6199525;23;20553;-83
2021/06/11 10:31:44;;;;;;;3.42;2.35;;;;;;;30.37;28.32;93659.97;6205230;23;20107;-85
2021/06/11 10:34:13;;;;;;;4.18;2.63;;;;;;;30.50;28.79;93655.47;6206957;23;20063;-84
2021/06/11 10:36:44;;;;;;;5.80;2.72;;;;;;;30.43;28.37;93652.84;6175278;23;20437;-86
2021/06/11 10:39:13;;;;;;;4.80;2.75;;;;;;;30.32;28.57;93652.28;6172685;23;20024;-84
2021/06/11 10:42:03;;;;;;;5.00;2.80;;;;;;;29.80;28.41;93667.53;6171885;23;20025;-87
2021/06/11 10:44:35;;;;;;;3.75;2.05;;;;;;;29.73;28.45;93657.53;6203007;23;20475;-86
2021/06/11 10:47:16;;;;;;;2.95;2.55;;;;;;;29.77;28.28;93658.22;6199642;23;20019;-85
2021/06/11 10:49:57;;;;;;;4.55;2.95;;;;;;;29.87;27.98;93660.03;6172702;23;20694;-87
2021/06/11 10:52:47;;;;;;;6.53;2.70;;;;;;;29.51;28.94;93653.59;6209433;23;20384;-88
2021/06/11 10:55:19;;;;;;;5.60;3.45;;;;;;;29.40;29.85;93664.63;6205056;23;20015;-85
2021/06/11 10:58:06;;;;;;;5.95;2.85;;;;;;;29.67;30.55;93646.31;6201191;23;20094;-84
2021/06/11 11:00:40;;;;;;;8.45;2.88;;;;;;;29.85;29.63;93650.72;6171986;23;20467;-82
2021/06/11 11:03:07;;;;;;;6.25;2.92;;;;;;;29.93;29.49;93647.50;6200745;23;20052;-85
2021/06/11 11:05:41;;;;;;;3.40;2.80;;;;;;;29.47;29.65;93653.63;6203721;23;20367;-84
2021/06/11 11:08:10;;;;;;;9.60;3.25;;;;;;;28.39;32.76;93666.19;6207834;23;20013;-86
2021/06/11 11:10:43;;;;;;;12.93;3.63;;;;;;;27.45;35.46;93663.06;6198142;23;20015;-84
2021/06/11 11:13:14;;;;;;;6.40;3.88;;;;;;;26.71;35.86;93691.31;6211772;23;20447;-83
2021/06/11 11:15:48;;;;;;;8.55;3.65;;;;;;;25.51;36.94;93702.97;6175521;23;20016;-85
2021/06/11 11:18:19;;;;;;;7.43;3.42;;;;;;;24.87;38.17;93716.34;6199659;23;20075;-84
2021/06/11 11:20:45;;;;;;;9.50;3.83;;;;;;;24.91;38.70;93716.34;6199899;23;20028;-83
2021/06/11 11:23:25;;;;;;;8.65;3.17;;;;;;;24.76;38.22;93730.94;6198827;23;20835;-84
2021/06/11 11:25:52;;;;;;;3.63;3.13;;;;;;;24.61;38.01;93719.28;6204239;23;20016;-82
2021/06/11 11:28:18;;;;;;;6.13;3.13;;;;;;;24.47;37.54;93730.00;6174672;23;20004;-85
2021/06/11 11:30:48;;;;;;;7.18;4.05;;;;;;;24.40;37.98;93730.72;6212316;23;19996;-86
2021/06/11 11:33:15;;;;;;;6.53;2.78;;;;;;;24.58;38.28;93720.03;6202656;23;20351;-87
2021/06/11 11:35:43;;;;;;;7.53;3.28;;;;;;;24.91;38.46;93733.34;6122697;23;20060;-86